createdAt,value
2023-11-12T00:01:24.527Z,9.93
2023-11-12T00:03:51.113Z,10.20
2023-11-12T00:06:17.545Z,11.23
2023-11-12T00:08:43.879Z,10.70
2023-11-12T00:11:10.351Z,9.87
2023-11-12T00:13:37.135Z,10.17
2023-11-12T00:16:03.675Z,10.70
2023-11-12T00:18:30.154Z,11.77
2023-11-12T00:20:57.465Z,11.20
2023-11-12T00:23:25.706Z,12.47
2023-11-12T00:25:54.514Z,11.13
2023-11-12T00:28:21.304Z,11.40
2023-11-12T00:30:48.783Z,12.40
2023-11-12T00:33:15.428Z,10.77
2023-11-12T00:35:41.387Z,11.77
2023-11-12T00:38:07.845Z,11.47
2023-11-12T00:40:34.234Z,10.40
2023-11-12T00:43:00.557Z,10.53
2023-11-12T00:45:26.954Z,11.27
2023-11-12T00:47:53.309Z,12.00
2023-11-12T00:50:20.915Z,10.17
2023-11-12T00:52:47.289Z,11.50
2023-11-12T00:55:13.607Z,11.23
2023-11-12T00:57:40.351Z,9.90
2023-11-12T01:00:07.212Z,11.50
2023-11-12T01:02:34.797Z,10.37
2023-11-12T01:05:02.394Z,10.30
2023-11-12T01:07:28.985Z,10.67
2023-11-12T01:09:55.329Z,11.03
2023-11-12T01:12:23.017Z,10.67
2023-11-12T01:14:50.510Z,10.70
2023-11-12T01:17:16.895Z,10.10
2023-11-12T01:19:43.207Z,10.73
2023-11-12T01:22:09.564Z,10.90
2023-11-12T01:24:36.909Z,10.37
2023-11-12T01:27:03.511Z,10.93
2023-11-12T01:29:30.538Z,10.87
2023-11-12T01:31:57.647Z,11.40
2023-11-12T01:34:24.272Z,10.23
2023-11-12T01:36:52.046Z,10.17
2023-11-12T01:39:19.028Z,10.13
2023-11-12T01:41:45.472Z,9.60
2023-11-12T01:44:11.777Z,11.07
2023-11-12T01:46:38.929Z,10.00
2023-11-12T01:49:05.678Z,9.40
2023-11-12T01:51:32.995Z,9.43
2023-11-12T01:54:00.330Z,10.30
2023-11-12T01:56:26.922Z,9.80
2023-11-12T01:58:55.620Z,9.57
2023-11-12T02:01:21.977Z,8.63
2023-11-12T02:03:50.270Z,9.50
2023-11-12T02:06:16.925Z,8.90
2023-11-12T02:08:44.241Z,8.57
2023-11-12T02:11:12.998Z,7.73
2023-11-12T02:13:42.609Z,8.20
2023-11-12T02:16:09.220Z,9.00
2023-11-12T02:18:36.314Z,8.50
2023-11-12T02:21:04.286Z,8.40
2023-11-12T02:23:31.009Z,8.40
2023-11-12T02:25:58.976Z,8.67
2023-11-12T02:28:25.313Z,7.97
2023-11-12T02:30:55.390Z,8.30
2023-11-12T02:33:25.235Z,8.47
2023-11-12T02:35:51.782Z,7.63
2023-11-12T02:38:18.190Z,9.30
2023-11-12T02:40:44.783Z,8.47
2023-11-12T02:43:11.668Z,7.80
2023-11-12T02:45:40.145Z,8.97
2023-11-12T02:48:07.619Z,7.90
2023-11-12T02:50:34.492Z,8.10
2023-11-12T02:53:02.211Z,8.53
2023-11-12T02:55:29.266Z,7.97
2023-11-12T02:57:56.584Z,7.63
2023-11-12T03:00:23.482Z,8.10
2023-11-12T03:02:50.834Z,8.73
2023-11-12T03:05:18.013Z,8.33
2023-11-12T03:07:45.511Z,8.23
2023-11-12T03:10:11.920Z,7.53
2023-11-12T03:12:41.878Z,8.43
2023-11-12T03:15:08.965Z,8.50
2023-11-12T03:17:35.598Z,8.27
2023-11-12T03:20:05.466Z,8.37
2023-11-12T03:22:32.737Z,8.07
2023-11-12T03:24:59.719Z,7.90
2023-11-12T03:27:27.148Z,8.10
2023-11-12T03:29:53.471Z,7.70
2023-11-12T03:32:22.839Z,7.70
2023-11-12T03:34:54.639Z,7.80
2023-11-12T03:37:21.424Z,7.60
2023-11-12T03:39:50.156Z,7.40
2023-11-12T03:42:17.257Z,7.73
2023-11-12T03:44:52.637Z,7.17
2023-11-12T03:47:19.407Z,7.40
2023-11-12T03:49:46.260Z,7.43
2023-11-12T03:52:12.890Z,7.43
2023-11-12T03:54:39.341Z,8.00
2023-11-12T03:57:06.029Z,8.20
2023-11-12T03:59:33.922Z,8.27
2023-11-12T04:02:00.668Z,7.73
2023-11-12T04:04:27.152Z,7.40
2023-11-12T04:06:54.030Z,7.80
2023-11-12T04:09:20.539Z,7.73
2023-11-12T04:11:47.034Z,8.57
2023-11-12T04:14:13.411Z,7.33
2023-11-12T04:16:41.656Z,7.90
2023-11-12T04:19:08.822Z,8.60
2023-11-12T04:21:36.063Z,7.87
2023-11-12T04:24:02.439Z,8.30
2023-11-12T04:26:30.946Z,8.10
2023-11-12T04:28:57.300Z,7.37
2023-11-12T04:31:23.772Z,7.70
2023-11-12T04:33:49.884Z,7.97
2023-11-12T04:36:15.951Z,7.73
2023-11-12T04:38:42.776Z,8.37
2023-11-12T04:41:13.130Z,8.03
2023-11-12T04:43:41.364Z,7.47
2023-11-12T04:46:08.041Z,8.20
2023-11-12T04:48:36.197Z,8.37
2023-11-12T04:51:02.522Z,8.10
2023-11-12T04:53:29.780Z,8.20
2023-11-12T04:55:56.400Z,7.77
2023-11-12T04:58:23.715Z,7.23
2023-11-12T05:00:51.183Z,7.53
2023-11-12T05:03:17.901Z,8.10
2023-11-12T05:05:44.251Z,8.07
2023-11-12T05:08:10.689Z,8.50
2023-11-12T05:10:44.937Z,9.37
2023-11-12T05:13:13.245Z,8.37
2023-11-12T05:15:40.038Z,8.87
2023-11-12T05:18:07.946Z,8.00
2023-11-12T05:20:37.306Z,8.73
2023-11-12T05:23:03.762Z,9.73
2023-11-12T05:25:30.433Z,8.37
2023-11-12T05:27:56.957Z,8.80
2023-11-12T05:30:24.786Z,7.63
2023-11-12T05:32:52.943Z,8.23
2023-11-12T05:35:19.947Z,7.80
2023-11-12T05:37:46.556Z,8.50
2023-11-12T05:40:13.738Z,8.67
2023-11-12T05:42:40.233Z,9.20
2023-11-12T05:45:07.201Z,9.10
2023-11-12T05:47:33.710Z,8.60
2023-11-12T05:50:00.205Z,9.30
2023-11-12T05:52:26.710Z,9.27
2023-11-12T05:54:52.984Z,9.40
2023-11-12T05:57:19.386Z,9.50
2023-11-12T05:59:45.792Z,9.50
2023-11-12T06:02:12.485Z,9.00
2023-11-12T06:04:39.768Z,9.20
2023-11-12T06:07:06.081Z,10.40
2023-11-12T06:09:32.631Z,9.80
2023-11-12T06:11:59.756Z,9.03
2023-11-12T06:14:26.404Z,8.93
2023-11-12T06:16:52.773Z,9.57
2023-11-12T06:19:19.282Z,9.97
2023-11-12T06:21:46.145Z,10.10
2023-11-12T06:24:12.832Z,9.70
2023-11-12T06:26:39.183Z,9.60
2023-11-12T06:29:05.636Z,8.93
2023-11-12T06:31:32.053Z,10.20
2023-11-12T06:33:58.768Z,9.40
2023-11-12T06:36:25.256Z,9.00
2023-11-12T06:38:55.449Z,9.87
2023-11-12T06:41:22.583Z,9.77
2023-11-12T06:43:50.149Z,9.60
2023-11-12T06:46:16.549Z,9.50
2023-11-12T06:48:43.310Z,9.43
2023-11-12T06:51:09.998Z,9.13
2023-11-12T06:53:36.672Z,10.00
2023-11-12T06:56:04.867Z,8.90
2023-11-12T06:58:32.404Z,10.80
2023-11-12T07:00:59.743Z,9.67
2023-11-12T07:03:26.259Z,9.67
2023-11-12T07:05:52.674Z,9.63
2023-11-12T07:08:20.619Z,11.00
2023-11-12T07:10:47.980Z,8.43
2023-11-12T07:13:17.452Z,11.10
2023-11-12T07:15:47.800Z,10.20
2023-11-12T07:18:15.175Z,11.00
2023-11-12T07:20:42.532Z,11.00
2023-11-12T07:23:09.620Z,12.93
2023-11-12T07:25:36.845Z,11.70
2023-11-12T07:28:03.782Z,11.20
2023-11-12T07:30:31.472Z,11.77
2023-11-12T07:32:58.121Z,11.60
2023-11-12T07:35:25.453Z,12.10
2023-11-12T07:37:52.567Z,12.10
2023-11-12T07:40:20.105Z,11.87
2023-11-12T07:42:46.763Z,11.57
2023-11-12T07:45:18.927Z,11.23
2023-11-12T07:47:49.219Z,11.90
2023-11-12T07:50:15.791Z,11.70
2023-11-12T07:52:45.287Z,12.03
2023-11-12T07:55:12.785Z,11.07
2023-11-12T07:57:39.401Z,11.03
2023-11-12T08:00:09.001Z,12.00
2023-11-12T08:02:38.197Z,10.77
2023-11-12T08:05:07.183Z,10.90
2023-11-12T08:07:33.633Z,10.50
2023-11-12T08:10:00.544Z,10.40
2023-11-12T08:12:27.071Z,10.20
2023-11-12T08:14:53.599Z,10.53
2023-11-12T08:17:19.940Z,10.93
2023-11-12T08:19:46.880Z,35.73
2023-11-12T08:22:13.285Z,16.80
2023-11-12T08:24:40.985Z,59.37
2023-11-12T08:27:08.787Z,14.40
2023-11-12T08:29:36.127Z,14.50
2023-11-12T08:32:03.713Z,15.77
2023-11-12T08:34:30.156Z,10.40
2023-11-12T08:36:56.568Z,11.20
2023-11-12T08:39:24.564Z,11.40
2023-11-12T08:41:52.209Z,10.90
2023-11-12T08:44:19.204Z,9.90
2023-11-12T08:46:46.128Z,10.50
2023-11-12T08:49:13.536Z,10.70
2023-11-12T08:51:40.198Z,10.23
2023-11-12T08:54:06.961Z,10.07
2023-11-12T08:56:33.315Z,10.13
2023-11-12T08:59:00.624Z,9.57
2023-11-12T09:01:27.164Z,9.87
2023-11-12T09:03:53.733Z,9.37
2023-11-12T09:06:20.165Z,9.63
2023-11-12T09:08:46.920Z,9.93
2023-11-12T09:11:15.208Z,10.13
2023-11-12T09:13:41.635Z,10.47
2023-11-12T09:16:12.215Z,8.03
2023-11-12T09:18:39.975Z,9.20
2023-11-12T09:21:06.665Z,6.50
2023-11-12T09:23:33.810Z,5.80
2023-11-12T09:26:00.602Z,6.17
2023-11-12T09:28:26.870Z,6.30
2023-11-12T09:30:59.463Z,5.70
2023-11-12T09:33:28.004Z,5.80
2023-11-12T09:35:54.588Z,6.17
2023-11-12T09:38:21.192Z,5.53
2023-11-12T09:40:47.916Z,5.77
2023-11-12T09:43:15.469Z,5.63
2023-11-12T09:45:44.912Z,5.63
2023-11-12T09:48:33.908Z,5.77
2023-11-12T09:51:01.722Z,5.33
2023-11-12T09:53:29.916Z,4.77
2023-11-12T09:55:59.003Z,5.50
2023-11-12T09:58:25.686Z,5.17
2023-11-12T10:00:56.454Z,5.83
2023-11-12T10:03:23.692Z,6.30
2023-11-12T10:05:50.598Z,5.40
2023-11-12T10:08:19.459Z,5.33
2023-11-12T10:10:46.217Z,6.10
2023-11-12T10:13:15.840Z,6.23
2023-11-12T10:15:45.254Z,6.63
2023-11-12T10:18:14.148Z,7.03
2023-11-12T10:20:41.714Z,6.50
2023-11-12T10:25:53.703Z,7.00
2023-11-12T10:28:21.391Z,7.47
2023-11-12T10:30:55.395Z,8.10
2023-11-12T10:33:25.714Z,8.43
2023-11-12T10:35:53.304Z,9.20
2023-11-12T10:38:20.271Z,8.90
2023-11-12T10:40:53.117Z,7.90
2023-11-12T10:43:20.104Z,10.40
2023-11-12T10:45:48.178Z,11.70
2023-11-12T10:51:22.126Z,14.67
2023-11-12T10:53:52.014Z,13.30
2023-11-12T10:56:21.898Z,13.17
2023-11-12T10:58:49.376Z,13.23
2023-11-12T11:01:18.209Z,13.83
2023-11-12T11:03:46.757Z,12.90
2023-11-12T11:06:14.960Z,13.50
2023-11-12T11:08:42.850Z,13.60
2023-11-12T11:11:11.886Z,12.43
2023-11-12T11:13:39.051Z,13.70
2023-11-12T11:16:06.513Z,14.87
2023-11-12T11:18:36.238Z,14.00
2023-11-12T11:21:07.134Z,13.73
2023-11-12T11:23:44.764Z,12.73
2023-11-12T11:26:30.595Z,14.00
2023-11-12T11:29:06.226Z,12.70
2023-11-12T11:31:39.588Z,11.57
2023-11-12T11:34:11.555Z,10.90
2023-11-12T11:36:39.252Z,11.70
2023-11-12T11:39:23.487Z,11.27
2023-11-12T11:41:50.421Z,11.10
2023-11-12T11:44:33.337Z,10.40
2023-11-12T11:47:15.557Z,9.50
2023-11-12T11:49:47.214Z,9.40
2023-11-12T11:52:25.501Z,7.83
2023-11-12T11:55:05.104Z,7.60
2023-11-12T11:57:33.447Z,7.67
2023-11-12T12:00:01.014Z,7.53
2023-11-12T12:02:28.873Z,8.23
2023-11-12T12:04:59.284Z,9.33
2023-11-12T12:07:31.242Z,9.03
2023-11-12T12:10:00.356Z,9.00
2023-11-12T12:12:28.131Z,8.73
2023-11-12T12:14:57.753Z,8.13
2023-11-12T12:17:24.744Z,8.30
2023-11-12T12:19:55.188Z,8.40
2023-11-12T12:22:25.246Z,9.13
2023-11-12T12:24:54.560Z,8.40
2023-11-12T12:27:21.393Z,9.17
2023-11-12T12:29:49.299Z,9.30
2023-11-12T12:32:21.588Z,8.50
2023-11-12T12:34:58.890Z,8.27
2023-11-12T12:37:30.268Z,7.47
2023-11-12T12:40:15.419Z,8.10
2023-11-12T12:42:45.073Z,8.27
2023-11-12T12:45:17.953Z,7.80
2023-11-12T12:47:45.408Z,7.07
2023-11-12T12:50:16.970Z,6.90
2023-11-12T12:52:48.200Z,6.87
2023-11-12T12:55:18.021Z,6.33
2023-11-12T12:57:51.674Z,6.70
2023-11-12T13:00:19.356Z,6.50
2023-11-12T13:02:48.798Z,6.90
2023-11-12T13:05:20.390Z,6.93
2023-11-12T13:07:50.511Z,5.97
2023-11-12T13:10:21.896Z,6.20
2023-11-12T13:12:57.707Z,6.90
2023-11-12T13:15:26.913Z,6.40
2023-11-12T13:17:53.826Z,6.30
2023-11-12T13:20:26.762Z,6.77
2023-11-12T13:22:53.945Z,6.57
2023-11-12T13:25:20.120Z,6.60
2023-11-12T13:27:46.882Z,5.80
2023-11-12T13:30:13.933Z,5.90
2023-11-12T13:32:41.474Z,6.30
2023-11-12T13:35:09.822Z,6.10
2023-11-12T13:37:36.704Z,6.30
2023-11-12T13:40:06.421Z,6.20
2023-11-12T13:42:37.201Z,6.27
2023-11-12T13:45:06.907Z,6.10
2023-11-12T13:47:33.734Z,6.63
2023-11-12T13:50:00.767Z,5.90
2023-11-12T13:52:28.878Z,6.40
2023-11-12T13:54:56.771Z,5.50
2023-11-12T13:57:23.352Z,6.00
2023-11-12T13:59:52.593Z,7.00
2023-11-12T14:02:18.769Z,6.00
2023-11-12T14:04:45.451Z,6.03
2023-11-12T14:07:11.940Z,5.93
2023-11-12T14:09:40.106Z,6.00
2023-11-12T14:12:08.282Z,6.27
2023-11-12T14:14:35.332Z,6.00
2023-11-12T14:17:09.479Z,6.30
2023-11-12T14:19:37.170Z,6.23
2023-11-12T14:22:05.792Z,6.53
2023-11-12T14:24:32.503Z,5.57
2023-11-12T14:27:02.552Z,6.40
2023-11-12T14:29:31.211Z,6.23
2023-11-12T14:32:01.960Z,6.53
2023-11-12T14:34:30.074Z,6.63
2023-11-12T14:36:56.516Z,7.87
2023-11-12T14:39:26.026Z,6.80
2023-11-12T14:41:54.508Z,8.00
2023-11-12T14:44:22.293Z,7.77
2023-11-12T14:46:49.248Z,7.80
2023-11-12T14:49:15.607Z,7.60
2023-11-12T14:51:46.564Z,7.70
2023-11-12T14:54:15.122Z,7.40
2023-11-12T14:56:42.080Z,7.37
2023-11-12T14:59:09.027Z,7.20
2023-11-12T15:01:36.441Z,6.43
2023-11-12T15:04:03.113Z,7.07
2023-11-12T15:06:32.107Z,6.40
2023-11-12T15:08:58.459Z,7.90
2023-11-12T15:11:25.754Z,6.83
2023-11-12T15:13:53.582Z,7.17
2023-11-12T15:16:20.506Z,8.33
2023-11-12T15:18:47.224Z,7.97
2023-11-12T15:21:15.529Z,7.70
2023-11-12T15:23:42.895Z,7.50
2023-11-12T15:26:15.869Z,7.40
2023-11-12T15:28:42.827Z,7.07
2023-11-12T15:31:11.036Z,6.87
2023-11-12T15:33:39.580Z,7.57
2023-11-12T15:36:07.127Z,8.00
2023-11-12T15:38:35.040Z,8.43
2023-11-12T15:41:03.002Z,8.67
2023-11-12T15:43:29.687Z,10.87
2023-11-12T15:45:57.955Z,12.13
2023-11-12T15:48:24.920Z,13.27
2023-11-12T15:50:51.390Z,11.63
2023-11-12T15:53:21.564Z,12.50
2023-11-12T15:55:48.396Z,14.67
2023-11-12T15:58:14.845Z,14.60
2023-11-12T16:00:43.014Z,16.40
2023-11-12T16:03:18.141Z,19.50
2023-11-12T16:05:46.088Z,18.30
2023-11-12T16:08:14.128Z,18.80
2023-11-12T16:10:41.872Z,17.37
2023-11-12T16:13:09.312Z,15.70
2023-11-12T16:15:36.986Z,14.10
2023-11-12T16:18:03.692Z,11.40
2023-11-12T16:20:30.292Z,11.53
2023-11-12T16:22:57.605Z,11.37
2023-11-12T16:25:24.633Z,10.13
2023-11-12T16:27:51.742Z,10.37
2023-11-12T16:30:18.871Z,11.50
2023-11-12T16:32:45.254Z,12.10
2023-11-12T16:35:12.670Z,12.93
2023-11-12T16:37:46.368Z,12.83
2023-11-12T16:40:14.052Z,12.70
2023-11-12T16:42:43.688Z,11.17
2023-11-12T16:45:10.794Z,11.07
2023-11-12T16:47:37.282Z,11.37
2023-11-12T16:50:04.793Z,10.70
2023-11-12T16:52:31.253Z,9.70
2023-11-12T16:54:59.753Z,10.57
2023-11-12T16:57:26.341Z,10.47
2023-11-12T16:59:52.760Z,11.00
2023-11-12T17:02:21.122Z,10.77
2023-11-12T17:04:47.609Z,11.30
2023-11-12T17:07:15.124Z,10.57
2023-11-12T17:09:46.244Z,10.40
2023-11-12T17:12:16.034Z,9.83
2023-11-12T17:14:43.231Z,10.10
2023-11-12T17:17:09.670Z,11.27
2023-11-12T17:19:36.662Z,12.43
2023-11-12T17:22:03.246Z,11.00
2023-11-12T17:24:30.191Z,13.30
2023-11-12T17:26:56.772Z,11.20
2023-11-12T17:29:23.319Z,12.50
2023-11-12T17:31:50.704Z,10.40
2023-11-12T17:34:17.916Z,9.60
2023-11-12T17:36:45.510Z,8.73
2023-11-12T17:39:14.457Z,9.13
2023-11-12T17:41:40.885Z,11.63
2023-11-12T17:44:08.630Z,9.77
2023-11-12T17:46:35.768Z,9.60
2023-11-12T17:49:03.985Z,10.47
2023-11-12T17:51:31.362Z,10.43
2023-11-12T17:53:57.772Z,10.63
2023-11-12T17:56:24.675Z,10.30
2023-11-12T17:58:51.298Z,9.60
2023-11-12T18:01:19.652Z,10.60
2023-11-12T18:03:46.990Z,10.10
2023-11-12T18:06:13.308Z,10.37
2023-11-12T18:08:39.602Z,9.30
2023-11-12T18:11:06.049Z,8.63
2023-11-12T18:13:36.157Z,9.87
2023-11-12T18:16:04.404Z,9.50
2023-11-12T18:18:32.756Z,9.30
2023-11-12T18:21:00.587Z,9.30
2023-11-12T18:23:26.980Z,10.10
2023-11-12T18:25:53.641Z,9.47
2023-11-12T18:28:21.289Z,9.10
2023-11-12T18:30:49.258Z,8.77
2023-11-12T18:33:16.564Z,9.27
2023-11-12T18:35:44.492Z,9.13
2023-11-12T18:38:13.806Z,9.33
2023-11-12T18:40:43.559Z,9.30
2023-11-12T18:43:12.099Z,9.40
2023-11-12T18:45:38.607Z,10.90
2023-11-12T18:48:09.315Z,9.17
2023-11-12T18:50:39.391Z,9.03
2023-11-12T18:53:06.613Z,8.80
2023-11-12T18:55:33.051Z,7.13
2023-11-12T18:58:01.284Z,7.73
2023-11-12T19:00:31.050Z,7.80
2023-11-12T19:03:00.890Z,7.40
2023-11-12T19:05:27.384Z,7.87
2023-11-12T19:07:54.019Z,7.40
2023-11-12T19:10:23.827Z,8.30
2023-11-12T19:12:50.905Z,7.70
2023-11-12T19:15:17.947Z,7.23
2023-11-12T19:17:45.462Z,8.57
2023-11-12T19:20:14.398Z,8.53
2023-11-12T19:22:42.851Z,8.87
2023-11-12T19:25:10.798Z,9.00
2023-11-12T19:27:39.938Z,8.40
2023-11-12T19:30:13.888Z,7.97
2023-11-12T19:32:42.396Z,6.93
2023-11-12T19:35:09.705Z,7.37
2023-11-12T19:37:38.474Z,7.97
2023-11-12T19:40:05.380Z,8.10
2023-11-12T19:42:32.033Z,8.47
2023-11-12T19:44:58.644Z,10.87
2023-11-12T19:47:25.562Z,10.43
2023-11-12T19:49:53.569Z,13.10
2023-11-12T19:52:20.362Z,12.77
2023-11-12T19:54:46.725Z,11.70
2023-11-12T19:57:13.251Z,11.83
2023-11-12T19:59:39.848Z,10.83
2023-11-12T20:02:07.704Z,10.17
2023-11-12T20:04:34.418Z,10.00
2023-11-12T20:07:02.524Z,10.97
2023-11-12T20:09:29.152Z,9.40
2023-11-12T20:11:55.659Z,9.93
2023-11-12T20:14:22.614Z,11.20
2023-11-12T20:16:49.091Z,10.80
2023-11-12T20:19:16.533Z,10.60
2023-11-12T20:21:43.437Z,10.87
2023-11-12T20:24:13.053Z,11.63
2023-11-12T20:26:47.431Z,10.83
2023-11-12T20:29:14.306Z,10.40
2023-11-12T20:31:41.614Z,12.20
2023-11-12T20:34:08.489Z,11.70
2023-11-12T20:36:37.824Z,14.30
2023-11-12T20:39:05.065Z,14.27
2023-11-12T20:41:33.072Z,13.30
2023-11-12T20:44:00.060Z,14.80
2023-11-12T20:46:27.406Z,14.73
2023-11-12T20:48:58.108Z,15.27
2023-11-12T20:51:24.865Z,12.60
2023-11-12T20:53:52.103Z,14.60
2023-11-12T20:56:19.982Z,14.70
2023-11-12T20:58:47.609Z,14.77
2023-11-12T21:01:14.285Z,13.70
2023-11-12T21:03:43.134Z,14.20
2023-11-12T21:06:09.988Z,13.80
2023-11-12T21:08:38.504Z,14.77
2023-11-12T21:11:08.473Z,13.77
2023-11-12T21:13:36.237Z,14.33
2023-11-12T21:16:02.883Z,14.60
2023-11-12T21:18:30.452Z,13.90
2023-11-12T21:20:58.708Z,12.50
2023-11-12T21:23:25.083Z,12.50
2023-11-12T21:25:53.613Z,12.07
2023-11-12T21:28:21.816Z,11.57
2023-11-12T21:30:48.629Z,11.23
2023-11-12T21:33:17.663Z,10.73
2023-11-12T21:35:51.125Z,11.07
2023-11-12T21:38:18.075Z,10.47
2023-11-12T21:40:46.330Z,10.03
2023-11-12T21:43:14.222Z,10.57
2023-11-12T21:45:42.962Z,8.97
2023-11-12T21:48:09.688Z,9.87
2023-11-12T21:50:36.752Z,8.80
2023-11-12T21:53:03.258Z,9.17
2023-11-12T21:55:29.599Z,8.67
2023-11-12T21:57:56.015Z,8.30
2023-11-12T22:00:22.692Z,7.70
2023-11-12T22:02:49.645Z,7.87
2023-11-12T22:05:17.263Z,7.63
2023-11-12T22:07:47.183Z,7.50
2023-11-12T22:10:13.747Z,7.00
2023-11-12T22:12:42.466Z,6.93
2023-11-12T22:15:14.266Z,6.83
2023-11-12T22:17:41.488Z,7.23
2023-11-12T22:20:15.654Z,6.30
2023-11-12T22:22:43.768Z,6.50
2023-11-12T22:25:14.717Z,5.87
2023-11-12T22:27:45.195Z,5.70
2023-11-12T22:30:13.516Z,5.57
2023-11-12T22:32:39.856Z,5.73
2023-11-12T22:35:07.354Z,5.03
2023-11-12T22:37:34.619Z,5.10
2023-11-12T22:40:01.020Z,4.33
2023-11-12T22:42:27.996Z,4.63
2023-11-12T22:44:54.271Z,4.33
2023-11-12T22:47:20.676Z,4.27
2023-11-12T22:49:47.169Z,4.30
2023-11-12T22:52:13.233Z,4.70
2023-11-12T22:54:39.316Z,4.70
2023-11-12T22:57:05.709Z,4.43
2023-11-12T22:59:32.057Z,5.80
2023-11-12T23:01:58.470Z,5.23
2023-11-12T23:04:26.756Z,5.03
2023-11-12T23:06:53.153Z,4.90
2023-11-12T23:09:22.857Z,4.80
2023-11-12T23:11:49.485Z,4.83
2023-11-12T23:14:16.083Z,4.93
2023-11-12T23:16:43.268Z,5.17
2023-11-12T23:19:10.842Z,4.97
2023-11-12T23:21:37.325Z,4.87
2023-11-12T23:24:05.436Z,4.20
2023-11-12T23:26:31.804Z,4.60
2023-11-12T23:28:59.265Z,4.00
2023-11-12T23:31:26.964Z,3.90
2023-11-12T23:33:53.676Z,4.40
2023-11-12T23:36:22.608Z,4.57
2023-11-12T23:38:49.081Z,4.60
2023-11-12T23:41:15.419Z,4.07
2023-11-12T23:43:44.009Z,4.10
2023-11-12T23:46:10.599Z,3.87
2023-11-12T23:48:38.344Z,3.90
2023-11-12T23:51:05.310Z,4.10
2023-11-12T23:53:31.994Z,4.20
2023-11-12T23:55:58.399Z,4.60
2023-11-12T23:58:25.830Z,3.77
